createdAt,value
2019-02-15T00:02:03.445Z,34.23
2019-02-15T00:04:34.966Z,33.53
2019-02-15T00:07:05.971Z,34.00
2019-02-15T00:09:37.124Z,39.00
2019-02-15T00:12:08.199Z,36.53
2019-02-15T00:14:49.591Z,35.97
2019-02-15T00:17:38.636Z,35.77
2019-02-15T00:20:15.095Z,34.77
2019-02-15T00:22:48.637Z,34.43
2019-02-15T00:25:19.690Z,35.40
2019-02-15T00:27:50.655Z,30.83
2019-02-15T00:30:21.695Z,35.93
2019-02-15T00:32:52.612Z,33.90
2019-02-15T00:35:23.779Z,34.60
2019-02-15T00:37:54.914Z,40.23
2019-02-15T00:40:25.963Z,35.67
2019-02-15T00:42:56.986Z,37.73
2019-02-15T00:45:30.691Z,35.83
2019-02-15T00:48:12.056Z,36.70
2019-02-15T00:51:17.298Z,35.10
2019-02-15T00:54:10.480Z,37.57
2019-02-15T00:57:07.530Z,35.53
2019-02-15T00:59:49.861Z,37.20
2019-02-15T01:02:29.405Z,34.10
2019-02-15T01:05:31.583Z,37.30
2019-02-15T01:08:21.893Z,39.23
2019-02-15T01:11:14.497Z,38.40
2019-02-15T01:13:45.649Z,40.40
2019-02-15T01:16:17.266Z,37.77
2019-02-15T01:18:48.666Z,43.07
2019-02-15T01:21:19.812Z,40.37
2019-02-15T01:23:50.914Z,33.67
2019-02-15T01:26:39.864Z,32.90
2019-02-15T01:29:28.555Z,33.77
2019-02-15T01:32:18.328Z,35.87
2019-02-15T01:35:06.669Z,33.93
2019-02-15T01:37:48.469Z,33.63
2019-02-15T01:40:37.303Z,38.53
2019-02-15T01:43:28.947Z,37.70
2019-02-15T01:46:13.158Z,34.37
2019-02-15T01:48:47.189Z,35.33
2019-02-15T01:51:18.242Z,31.00
2019-02-15T01:53:49.226Z,34.20
2019-02-15T01:56:20.293Z,34.27
2019-02-15T01:58:51.199Z,30.47
2019-02-15T02:01:25.010Z,25.93
2019-02-15T02:03:56.092Z,31.03
2019-02-15T02:06:29.386Z,30.50
2019-02-15T02:09:02.940Z,33.23
2019-02-15T02:11:35.721Z,33.57
2019-02-15T02:14:07.200Z,33.33
2019-02-15T02:16:38.262Z,35.30
2019-02-15T02:19:09.167Z,32.53
2019-02-15T02:21:40.164Z,33.97
2019-02-15T02:24:11.060Z,31.93
2019-02-15T02:26:42.053Z,32.83
2019-02-15T02:29:14.003Z,39.73
2019-02-15T02:31:45.121Z,35.80
2019-02-15T02:34:16.236Z,34.13
2019-02-15T02:36:51.619Z,33.23
2019-02-15T02:39:22.694Z,34.40
2019-02-15T02:41:59.279Z,38.23
2019-02-15T02:44:30.353Z,29.77
2019-02-15T02:47:01.769Z,36.27
2019-02-15T02:49:32.793Z,31.80
2019-02-15T02:52:04.868Z,33.63
2019-02-15T02:54:35.896Z,30.30
2019-02-15T02:57:07.991Z,37.97
2019-02-15T02:59:38.977Z,35.03
2019-02-15T03:02:09.974Z,38.50
2019-02-15T03:04:41.049Z,36.07
2019-02-15T03:07:12.077Z,37.87
2019-02-15T03:09:44.822Z,33.53
2019-02-15T03:12:16.083Z,33.13
2019-02-15T03:14:47.346Z,33.10
2019-02-15T03:17:18.550Z,28.77
2019-02-15T03:19:49.468Z,31.80
2019-02-15T03:22:22.165Z,30.10
2019-02-15T03:24:53.065Z,28.13
2019-02-15T03:27:24.276Z,33.10
2019-02-15T03:29:56.435Z,32.03
2019-02-15T03:32:27.561Z,30.07
2019-02-15T03:34:58.551Z,33.50
2019-02-15T03:37:46.948Z,32.27
2019-02-15T03:40:21.947Z,32.97
2019-02-15T03:42:53.133Z,34.73
2019-02-15T03:45:24.017Z,29.93
2019-02-15T03:47:55.124Z,29.37
2019-02-15T03:50:26.080Z,32.07
2019-02-15T03:52:57.160Z,29.30
2019-02-15T03:55:28.173Z,32.60
2019-02-15T03:57:59.741Z,32.90
2019-02-15T04:00:31.380Z,28.10
2019-02-15T04:03:03.224Z,30.03
2019-02-15T04:05:34.849Z,30.80
2019-02-15T04:08:06.599Z,30.73
2019-02-15T04:10:37.721Z,30.37
2019-02-15T04:13:08.746Z,30.50
2019-02-15T04:15:39.872Z,31.63
2019-02-15T04:18:11.410Z,32.50
2019-02-15T04:20:43.037Z,35.17
2019-02-15T04:23:14.849Z,29.03
2019-02-15T04:25:45.839Z,30.43
2019-02-15T04:28:17.190Z,33.07
2019-02-15T04:30:54.420Z,34.73
2019-02-15T04:36:16.839Z,36.97
2019-02-15T04:38:47.671Z,27.70
2019-02-15T04:41:18.580Z,27.80
2019-02-15T04:43:49.445Z,30.77
2019-02-15T04:46:20.440Z,28.23
2019-02-15T04:48:51.366Z,30.27
2019-02-15T04:54:13.556Z,30.13
2019-02-15T04:56:46.759Z,27.50
2019-02-15T04:59:17.677Z,30.97
2019-02-15T05:01:48.456Z,31.17
2019-02-15T05:04:19.246Z,28.03
2019-02-15T05:06:59.708Z,29.73
2019-02-15T05:09:34.058Z,31.43
2019-02-15T05:12:05.437Z,30.47
2019-02-15T05:14:36.458Z,31.10
2019-02-15T05:17:07.546Z,115.80
2019-02-15T05:19:38.605Z,35.20
2019-02-15T05:22:09.806Z,42.53
2019-02-15T05:24:40.855Z,42.87
2019-02-15T05:27:11.975Z,41.23
2019-02-15T05:29:42.895Z,69.47
2019-02-15T05:32:13.996Z,42.83
2019-02-15T05:34:46.145Z,43.93
2019-02-15T05:37:17.338Z,35.30
2019-02-15T05:39:48.453Z,36.00
2019-02-15T05:42:19.398Z,30.10
2019-02-15T05:44:50.614Z,32.07
2019-02-15T05:47:21.579Z,30.30
2019-02-15T05:49:52.535Z,31.10
2019-02-15T05:52:23.565Z,29.90
2019-02-15T05:54:54.528Z,31.50
2019-02-15T05:57:25.485Z,30.17
2019-02-15T05:59:56.544Z,32.57
2019-02-15T06:02:27.519Z,32.00
2019-02-15T06:04:58.456Z,31.57
2019-02-15T06:07:29.390Z,34.70
2019-02-15T06:10:00.338Z,36.40
2019-02-15T06:12:31.386Z,35.10
2019-02-15T06:15:02.500Z,33.67
2019-02-15T06:17:33.620Z,34.37
2019-02-15T06:20:04.783Z,30.83
2019-02-15T06:22:35.980Z,30.80
2019-02-15T06:25:07.154Z,30.43
2019-02-15T06:27:38.243Z,34.07
2019-02-15T06:30:09.717Z,28.63
2019-02-15T06:32:40.740Z,34.13
2019-02-15T06:35:11.737Z,28.73
2019-02-15T06:37:42.811Z,27.37
2019-02-15T06:40:14.061Z,29.67
2019-02-15T06:42:45.089Z,30.13
2019-02-15T06:45:24.233Z,30.07
2019-02-15T06:47:48.866Z,30.27
2019-02-15T06:50:19.899Z,26.00
2019-02-15T06:52:50.970Z,31.47
2019-02-15T06:55:22.030Z,29.47
2019-02-15T06:57:53.202Z,29.57
2019-02-15T07:00:42.921Z,29.83
2019-02-15T07:03:24.380Z,37.97
2019-02-15T07:05:55.499Z,29.60
2019-02-15T07:08:26.549Z,28.13
2019-02-15T07:10:57.580Z,33.47
2019-02-15T07:13:28.709Z,28.00
2019-02-15T07:15:59.788Z,27.77
2019-02-15T07:18:30.844Z,27.27
2019-02-15T07:21:04.201Z,24.23
2019-02-15T07:23:35.906Z,31.07
2019-02-15T07:26:07.427Z,27.40
2019-02-15T07:28:38.473Z,28.33
2019-02-15T07:31:09.611Z,31.00
2019-02-15T07:33:41.139Z,28.47
2019-02-15T07:36:12.175Z,30.50
2019-02-15T07:38:43.728Z,26.57
2019-02-15T07:41:14.695Z,27.07
2019-02-15T07:43:45.706Z,29.23
2019-02-15T07:46:16.667Z,26.33
2019-02-15T07:48:47.649Z,28.77
2019-02-15T07:51:19.235Z,26.00
2019-02-15T07:53:50.872Z,30.43
2019-02-15T07:56:21.989Z,25.30
2019-02-15T07:58:53.838Z,24.30
2019-02-15T08:01:25.617Z,24.50
2019-02-15T08:03:58.439Z,27.03
2019-02-15T08:06:30.117Z,24.50
2019-02-15T08:09:01.815Z,23.20
2019-02-15T08:11:34.817Z,23.27
2019-02-15T08:14:14.649Z,19.10
2019-02-15T08:16:40.166Z,23.83
2019-02-15T08:19:12.570Z,18.30
2019-02-15T08:21:44.362Z,21.10
2019-02-15T08:24:16.092Z,22.77
2019-02-15T08:26:47.781Z,26.07
2019-02-15T08:29:19.120Z,24.53
2019-02-15T08:31:50.832Z,21.33
2019-02-15T08:34:22.615Z,19.10
2019-02-15T08:36:54.316Z,21.53
2019-02-15T08:39:26.003Z,22.77
2019-02-15T08:42:03.830Z,24.00
2019-02-15T08:44:30.949Z,22.70
2019-02-15T08:47:02.715Z,23.97
2019-02-15T08:49:34.461Z,25.37
2019-02-15T08:52:06.280Z,23.63
2019-02-15T08:54:37.877Z,23.20
2019-02-15T08:57:09.406Z,23.93
2019-02-15T08:59:41.092Z,27.57
2019-02-15T09:02:19.711Z,21.47
2019-02-15T09:04:51.227Z,24.03
2019-02-15T09:07:23.076Z,23.03
2019-02-15T09:09:55.117Z,20.30
2019-02-15T09:12:26.677Z,17.67
2019-02-15T09:14:58.497Z,22.30
2019-02-15T09:17:29.589Z,18.50
2019-02-15T09:20:01.527Z,19.43
2019-02-15T09:22:33.280Z,22.30
2019-02-15T09:25:05.343Z,20.97
2019-02-15T09:27:41.735Z,20.97
2019-02-15T09:30:15.082Z,20.60
2019-02-15T09:32:46.720Z,21.50
2019-02-15T09:35:18.481Z,20.43
2019-02-15T09:37:50.644Z,20.07
2019-02-15T09:40:21.827Z,21.80
2019-02-15T09:42:53.508Z,19.60
2019-02-15T09:45:25.280Z,21.80
2019-02-15T09:47:56.374Z,20.00
2019-02-15T09:50:27.953Z,21.40
2019-02-15T09:53:00.040Z,22.57
2019-02-15T09:55:32.965Z,24.43
2019-02-15T09:58:05.204Z,22.40
2019-02-15T10:00:36.910Z,23.97
2019-02-15T10:03:08.430Z,22.73
2019-02-15T10:05:40.585Z,22.00
2019-02-15T10:08:11.802Z,17.83
2019-02-15T10:10:43.934Z,24.10
2019-02-15T10:13:15.593Z,19.73
2019-02-15T10:15:47.247Z,22.20
2019-02-15T10:18:19.363Z,21.10
2019-02-15T10:20:51.145Z,20.13
2019-02-15T10:23:22.928Z,21.33
2019-02-15T10:25:54.733Z,19.60
2019-02-15T10:28:26.362Z,20.00
2019-02-15T10:30:58.029Z,20.63
2019-02-15T10:33:29.817Z,22.57
2019-02-15T10:36:01.090Z,20.80
2019-02-15T10:38:32.735Z,22.00
2019-02-15T10:41:04.600Z,20.70
2019-02-15T10:43:36.134Z,21.73
2019-02-15T10:46:07.818Z,20.60
2019-02-15T10:48:40.651Z,19.90
2019-02-15T10:51:12.698Z,21.77
2019-02-15T10:53:45.387Z,22.30
2019-02-15T10:56:16.459Z,20.27
2019-02-15T10:58:48.064Z,20.23
2019-02-15T11:01:19.868Z,21.43
2019-02-15T11:03:50.905Z,22.47
2019-02-15T11:06:22.527Z,20.10
2019-02-15T11:08:53.576Z,20.97
2019-02-15T11:11:25.282Z,19.93
2019-02-15T11:13:57.017Z,20.27
2019-02-15T11:16:29.296Z,21.93
2019-02-15T11:19:00.859Z,19.57
2019-02-15T11:21:31.976Z,20.63
2019-02-15T11:24:03.684Z,20.03
2019-02-15T11:26:35.479Z,20.40
2019-02-15T11:29:06.824Z,21.13
2019-02-15T11:31:38.686Z,20.63
2019-02-15T11:34:10.318Z,21.73
2019-02-15T11:36:42.590Z,22.63
2019-02-15T11:39:13.863Z,18.07
2019-02-15T11:41:45.686Z,18.90
2019-02-15T11:44:17.413Z,18.80
2019-02-15T11:46:56.570Z,18.37
2019-02-15T11:49:22.361Z,17.97
2019-02-15T11:51:54.125Z,18.80
2019-02-15T11:54:26.394Z,18.67
2019-02-15T11:56:58.389Z,19.67
2019-02-15T11:59:32.492Z,17.93
2019-02-15T12:02:06.316Z,16.87
2019-02-15T12:04:37.329Z,18.43
2019-02-15T12:07:09.210Z,17.90
2019-02-15T12:09:40.887Z,17.43
2019-02-15T12:12:12.665Z,14.77
2019-02-15T12:14:44.364Z,16.37
2019-02-15T12:17:16.314Z,18.27
2019-02-15T12:19:47.488Z,18.37
2019-02-15T12:22:18.599Z,16.87
2019-02-15T12:24:50.320Z,14.93
2019-02-15T12:27:22.517Z,13.23
2019-02-15T12:29:54.094Z,15.37
2019-02-15T12:32:25.978Z,13.73
2019-02-15T12:34:57.791Z,12.57
2019-02-15T12:37:29.468Z,13.60
2019-02-15T12:40:00.936Z,14.23
2019-02-15T12:42:33.236Z,14.10
2019-02-15T12:45:05.158Z,13.63
2019-02-15T12:47:36.476Z,12.73
2019-02-15T12:50:10.647Z,12.33
2019-02-15T12:52:42.425Z,12.63
2019-02-15T12:55:15.263Z,14.47
2019-02-15T12:57:47.080Z,13.73
2019-02-15T13:00:19.905Z,16.00
2019-02-15T13:02:52.319Z,15.33
2019-02-15T13:05:24.226Z,16.63
2019-02-15T13:07:56.180Z,15.77
2019-02-15T13:10:28.633Z,16.97
2019-02-15T13:13:00.221Z,19.40
2019-02-15T13:15:31.379Z,18.57
2019-02-15T13:18:03.088Z,18.97
2019-02-15T13:20:34.921Z,19.73
2019-02-15T13:23:06.840Z,20.73
2019-02-15T13:25:38.190Z,21.67
2019-02-15T13:28:09.849Z,23.40
2019-02-15T13:30:41.753Z,20.37
2019-02-15T13:33:13.495Z,20.00
2019-02-15T13:35:45.264Z,14.93
2019-02-15T13:38:16.897Z,17.07
2019-02-15T13:40:48.730Z,18.93
2019-02-15T13:43:19.837Z,19.30
2019-02-15T13:45:50.803Z,22.30
2019-02-15T13:48:21.807Z,17.73
2019-02-15T13:50:53.391Z,19.70
2019-02-15T13:53:25.229Z,18.73
2019-02-15T13:55:57.015Z,19.47
2019-02-15T13:58:29.038Z,18.77
2019-02-15T14:01:01.174Z,17.67
2019-02-15T14:03:34.178Z,17.97
2019-02-15T14:06:06.082Z,19.23
2019-02-15T14:08:38.006Z,23.37
2019-02-15T14:11:09.815Z,23.27
2019-02-15T14:13:41.562Z,23.23
2019-02-15T14:16:13.293Z,19.83
2019-02-15T14:18:44.472Z,18.80
2019-02-15T14:21:15.970Z,17.57
2019-02-15T14:23:47.635Z,17.33
2019-02-15T14:26:19.202Z,18.87
2019-02-15T14:28:50.885Z,19.93
2019-02-15T14:31:22.403Z,21.87
2019-02-15T14:33:54.154Z,20.60
2019-02-15T14:36:25.671Z,21.47
2019-02-15T14:38:57.281Z,16.77
2019-02-15T14:41:29.011Z,18.93
2019-02-15T14:44:00.101Z,18.97
2019-02-15T14:46:31.691Z,18.17
2019-02-15T14:49:02.964Z,21.90
2019-02-15T14:51:33.900Z,21.40
2019-02-15T14:54:05.025Z,19.07
2019-02-15T14:56:36.255Z,20.00
2019-02-15T14:59:07.312Z,16.97
2019-02-15T15:01:38.204Z,19.90
2019-02-15T15:04:09.463Z,20.20
2019-02-15T15:06:41.119Z,13.83
2019-02-15T15:09:12.989Z,16.70
2019-02-15T15:11:44.729Z,17.73
2019-02-15T15:14:16.547Z,19.17
2019-02-15T15:16:47.636Z,24.73
2019-02-15T15:19:19.170Z,20.27
2019-02-15T15:21:50.835Z,13.63
2019-02-15T15:24:22.705Z,16.10
2019-02-15T15:26:54.325Z,18.53
2019-02-15T15:29:25.377Z,17.40
2019-02-15T15:31:56.758Z,17.33
2019-02-15T15:34:27.900Z,18.77
2019-02-15T15:37:01.125Z,19.67
2019-02-15T15:39:33.967Z,20.53
2019-02-15T15:42:05.740Z,17.07
2019-02-15T15:44:37.694Z,19.93
2019-02-15T15:47:09.357Z,19.87
2019-02-15T15:49:40.430Z,23.37
2019-02-15T15:52:11.767Z,22.67
2019-02-15T15:54:43.239Z,24.70
2019-02-15T15:57:14.470Z,19.13
2019-02-15T15:59:45.978Z,18.93
2019-02-15T16:02:18.492Z,20.27
2019-02-15T16:04:50.424Z,18.70
2019-02-15T16:07:22.110Z,19.73
2019-02-15T16:09:54.070Z,17.70
2019-02-15T16:12:25.847Z,20.17
2019-02-15T16:14:57.514Z,22.20
2019-02-15T16:17:30.708Z,26.40
2019-02-15T16:20:02.695Z,26.00
2019-02-15T16:22:36.266Z,24.60
2019-02-15T16:25:12.773Z,24.50
2019-02-15T16:27:44.426Z,27.93
2019-02-15T16:30:16.493Z,27.20
2019-02-15T16:32:48.148Z,29.17
2019-02-15T16:35:20.242Z,30.87
2019-02-15T16:37:52.546Z,28.13
2019-02-15T16:40:24.353Z,28.73
2019-02-15T16:42:58.281Z,26.53
2019-02-15T16:45:29.446Z,27.57
2019-02-15T16:48:03.446Z,27.37
2019-02-15T16:50:35.345Z,25.50
2019-02-15T16:53:08.908Z,24.93
2019-02-15T16:55:40.154Z,24.00
2019-02-15T16:58:14.633Z,24.93
2019-02-15T17:00:46.568Z,23.33
2019-02-15T17:03:17.945Z,23.50
2019-02-15T17:05:49.705Z,20.70
2019-02-15T17:08:21.672Z,24.23
2019-02-15T17:10:53.642Z,27.77
2019-02-15T17:13:25.477Z,24.63
2019-02-15T17:16:00.832Z,23.70
2019-02-15T17:18:35.001Z,30.07
2019-02-15T17:21:06.478Z,37.63
2019-02-15T17:23:38.129Z,26.57
2019-02-15T17:26:09.999Z,27.17
2019-02-15T17:28:41.861Z,34.50
2019-02-15T17:31:13.317Z,21.47
2019-02-15T17:33:47.410Z,21.50
2019-02-15T17:36:20.963Z,22.37
2019-02-15T17:38:52.196Z,19.37
2019-02-15T17:41:23.630Z,20.33
2019-02-15T17:43:54.880Z,23.93
2019-02-15T17:46:25.967Z,22.17
2019-02-15T17:49:00.852Z,23.47
2019-02-15T17:51:30.461Z,24.80
2019-02-15T17:54:04.878Z,26.67
2019-02-15T17:56:37.402Z,26.17
2019-02-15T17:59:08.785Z,24.50
2019-02-15T18:01:39.927Z,26.20
2019-02-15T18:04:11.634Z,23.37
2019-02-15T18:06:43.481Z,24.07
2019-02-15T18:09:15.336Z,24.37
2019-02-15T18:11:46.677Z,26.43
2019-02-15T18:14:18.195Z,26.13
2019-02-15T18:16:50.053Z,27.77
2019-02-15T18:19:25.761Z,31.40
2019-02-15T18:21:57.012Z,29.47
2019-02-15T18:24:28.608Z,31.77
2019-02-15T18:26:59.895Z,31.90
2019-02-15T18:29:32.802Z,35.53
2019-02-15T18:32:04.736Z,41.90
2019-02-15T18:34:36.262Z,37.63
2019-02-15T18:37:07.355Z,40.17
2019-02-15T18:39:41.777Z,34.57
2019-02-15T18:42:13.069Z,33.37
2019-02-15T18:44:45.730Z,34.10
2019-02-15T18:47:18.252Z,36.83
2019-02-15T18:49:56.273Z,36.63
2019-02-15T18:52:28.066Z,34.20
2019-02-15T18:54:59.124Z,33.23
2019-02-15T18:57:33.722Z,31.87
2019-02-15T19:03:16.395Z,34.83
2019-02-15T19:05:47.762Z,34.17
2019-02-15T19:08:19.546Z,34.50
2019-02-15T19:10:54.203Z,32.67
2019-02-15T19:13:27.446Z,32.10
2019-02-15T19:16:07.846Z,35.50
2019-02-15T19:18:39.245Z,30.17
2019-02-15T19:21:10.917Z,27.60
2019-02-15T19:23:44.620Z,27.53
2019-02-15T19:26:17.402Z,27.70
2019-02-15T19:28:57.803Z,28.80
2019-02-15T19:31:52.706Z,28.23
2019-02-15T19:34:27.902Z,27.07
2019-02-15T19:36:59.619Z,26.87
2019-02-15T19:39:31.206Z,26.83
2019-02-15T19:42:08.578Z,27.47
2019-02-15T19:44:39.977Z,27.27
2019-02-15T19:47:12.780Z,26.97
2019-02-15T19:49:47.284Z,24.63
2019-02-15T19:52:18.382Z,25.83
2019-02-15T19:54:50.222Z,23.67
2019-02-15T19:57:21.352Z,23.37
2019-02-15T19:59:54.202Z,24.53
2019-02-15T20:02:25.904Z,24.00
2019-02-15T20:04:57.338Z,24.30
2019-02-15T20:07:32.985Z,25.70
2019-02-15T20:10:04.734Z,25.20
2019-02-15T20:12:36.569Z,27.70
2019-02-15T20:15:11.135Z,27.07
2019-02-15T20:17:43.096Z,26.43
2019-02-15T20:20:14.963Z,27.20
2019-02-15T20:22:46.691Z,25.97
2019-02-15T20:25:18.795Z,28.30
2019-02-15T20:27:51.626Z,24.80
2019-02-15T20:30:23.561Z,25.43
2019-02-15T20:32:55.114Z,24.33
2019-02-15T20:35:26.840Z,23.00
2019-02-15T20:37:58.700Z,25.17
2019-02-15T20:40:30.542Z,23.63
2019-02-15T20:43:02.288Z,24.13
2019-02-15T20:45:33.929Z,23.33
2019-02-15T20:48:11.197Z,23.43
2019-02-15T20:50:38.738Z,22.80
2019-02-15T20:53:09.796Z,19.63
2019-02-15T20:55:41.056Z,19.37
2019-02-15T20:58:12.211Z,21.43
2019-02-15T21:00:43.950Z,17.50
2019-02-15T21:03:15.636Z,17.60
2019-02-15T21:05:46.705Z,15.77
2019-02-15T21:08:17.748Z,16.13
2019-02-15T21:10:55.240Z,15.23
2019-02-15T21:13:21.572Z,16.13
2019-02-15T21:15:52.901Z,16.87
2019-02-15T21:18:23.866Z,15.30
2019-02-15T21:20:55.485Z,14.47
2019-02-15T21:23:27.372Z,15.53
2019-02-15T21:25:58.634Z,15.97
2019-02-15T21:28:29.622Z,16.10
2019-02-15T21:31:00.917Z,17.27
2019-02-15T21:33:32.104Z,17.50
2019-02-15T21:36:03.317Z,19.83
2019-02-15T21:38:34.736Z,20.47
2019-02-15T21:41:07.106Z,18.13
2019-02-15T21:43:38.211Z,20.20
2019-02-15T21:46:09.521Z,16.30
2019-02-15T21:48:40.622Z,16.43
2019-02-15T21:51:12.001Z,14.83
2019-02-15T21:53:43.176Z,14.47
2019-02-15T21:56:14.248Z,14.43
2019-02-15T21:58:45.347Z,14.93
2019-02-15T22:01:16.536Z,14.37
2019-02-15T22:03:47.965Z,15.67
2019-02-15T22:06:19.090Z,15.57
2019-02-15T22:08:50.369Z,16.27
2019-02-15T22:11:21.564Z,16.10
2019-02-15T22:13:52.508Z,15.27
2019-02-15T22:16:23.558Z,15.53
2019-02-15T22:18:54.563Z,15.90
2019-02-15T22:21:25.617Z,16.90
2019-02-15T22:23:57.382Z,16.80
2019-02-15T22:26:28.753Z,17.33
2019-02-15T22:28:59.866Z,16.83
2019-02-15T22:31:31.683Z,16.13
2019-02-15T22:34:02.867Z,15.83
2019-02-15T22:36:33.972Z,15.63
2019-02-15T22:39:05.904Z,16.87
2019-02-15T22:41:37.903Z,18.10
2019-02-15T22:44:08.804Z,16.47
2019-02-15T22:46:39.754Z,16.23
2019-02-15T22:49:13.797Z,17.00
2019-02-15T22:51:44.782Z,16.53
2019-02-15T22:54:15.698Z,16.53
2019-02-15T22:56:46.714Z,16.37
2019-02-15T22:59:20.998Z,16.07
2019-02-15T23:01:53.512Z,17.53
2019-02-15T23:04:24.931Z,19.50
2019-02-15T23:06:56.058Z,16.10
2019-02-15T23:09:27.021Z,17.07
2019-02-15T23:11:58.218Z,17.50
2019-02-15T23:14:29.443Z,18.27
2019-02-15T23:17:03.433Z,18.23
2019-02-15T23:19:34.533Z,17.67
2019-02-15T23:22:06.231Z,17.03
2019-02-15T23:24:40.202Z,17.33
2019-02-15T23:27:13.404Z,18.47
2019-02-15T23:29:44.441Z,19.07
2019-02-15T23:32:15.459Z,18.47
2019-02-15T23:34:46.608Z,17.53
2019-02-15T23:37:17.736Z,19.90
2019-02-15T23:39:48.767Z,19.23
2019-02-15T23:42:20.489Z,20.07
2019-02-15T23:44:52.281Z,19.70
2019-02-15T23:47:23.619Z,20.33
2019-02-15T23:49:55.704Z,19.30
2019-02-15T23:52:27.407Z,20.33
2019-02-15T23:54:58.587Z,19.97
2019-02-15T23:57:29.602Z,20.27
